Time;durP1;ratioP1;P1;durP2;ratioP2;P2;SDS_P1;SDS_P2;PMS_P1;PMS_P2;Temp;Humidity;BMP_temperature;BMP_pressure;BME280_temperature;BME280_humidity;BME280_pressure;Samples;Min_cycle;Max_cycle;Signal;HPM_P1;HPM_P2
2022/08/30 00:01:28;;;;;;;9.10;6.10;;;;;;;22.90;71.96;100082.00;4432436;32;34028;-76
2022/08/30 00:03:57;;;;;;;7.82;5.55;;;;;;;22.75;72.73;100077.66;4428478;32;34765;-76
2022/08/30 00:06:27;;;;;;;9.20;5.78;;;;;;;22.60;73.37;100076.75;4436052;32;34342;-76
2022/08/30 00:08:55;;;;;;;8.15;5.30;;;;;;;22.83;72.37;100074.09;4431938;32;33533;-76
2022/08/30 00:11:25;;;;;;;7.82;5.40;;;;;;;22.92;71.96;100071.44;4435836;32;33760;-76
2022/08/30 00:13:54;;;;;;;9.27;5.80;;;;;;;23.07;71.17;100078.53;4438297;32;33929;-76
2022/08/30 00:16:24;;;;;;;7.82;5.03;;;;;;;23.42;69.40;100074.91;4437286;32;33889;-76
2022/08/30 00:18:51;;;;;;;11.20;5.65;;;;;;;22.69;72.88;100076.75;4429876;32;31686;-76
2022/08/30 00:21:19;;;;;;;11.48;6.18;;;;;;;22.57;73.47;100080.28;4434046;32;34780;-76
2022/08/30 00:23:47;;;;;;;7.70;5.05;;;;;;;22.51;73.85;100078.50;4431505;32;34074;-76
2022/08/30 00:26:15;;;;;;;8.00;5.20;;;;;;;22.61;73.43;100073.25;4435193;32;34031;-76
2022/08/30 00:28:42;;;;;;;9.02;5.62;;;;;;;22.87;72.36;100076.75;4434394;32;33374;-76
2022/08/30 00:31:11;;;;;;;8.68;5.78;;;;;;;22.69;73.23;100076.75;4435426;32;33652;-76
2022/08/30 00:33:41;;;;;;;8.43;5.70;;;;;;;22.48;73.95;100075.84;4433572;32;34756;-76
2022/08/30 00:36:09;;;;;;;8.80;6.05;;;;;;;22.09;75.92;100079.31;4436996;32;33851;-76
2022/08/30 00:38:37;;;;;;;7.07;5.30;;;;;;;21.92;76.86;100072.25;4434205;32;34138;-77
2022/08/30 00:41:04;;;;;;;9.35;5.62;;;;;;;22.35;75.01;100082.03;4434145;32;33764;-76
2022/08/30 00:43:34;;;;;;;8.75;5.60;;;;;;;22.78;72.91;100076.75;4433855;32;34323;-76
2022/08/30 00:46:06;;;;;;;7.93;5.87;;;;;;;22.84;72.45;100082.03;4434536;32;33816;-76
2022/08/30 00:48:39;;;;;;;8.25;5.97;;;;;;;23.03;71.59;100079.41;4436226;32;33226;-76
2022/08/30 00:51:10;;;;;;;7.10;4.95;;;;;;;23.05;71.12;100075.88;4436200;32;34370;-76
2022/08/30 00:53:40;;;;;;;9.00;5.43;;;;;;;23.00;71.34;100082.88;4434800;32;33835;-76
2022/08/30 00:56:08;;;;;;;8.57;5.60;;;;;;;22.76;72.40;100083.81;4421309;32;34541;-76
2022/08/30 00:58:38;;;;;;;9.63;6.03;;;;;;;22.70;72.62;100078.53;4434156;32;32841;-76
2022/08/30 01:01:06;;;;;;;8.63;5.22;;;;;;;22.56;73.48;100086.41;4433007;32;34767;-76
2022/08/30 01:03:36;;;;;;;7.62;5.90;;;;;;;22.53;73.80;100071.47;4419881;32;33875;-77
2022/08/30 01:06:04;;;;;;;8.75;5.90;;;;;;;22.60;73.64;100079.38;4434823;32;36359;-76
2022/08/30 01:08:32;;;;;;;7.97;5.55;;;;;;;23.07;71.46;100073.25;4431937;32;34042;-76
2022/08/30 01:11:01;;;;;;;7.47;4.78;;;;;;;23.25;70.27;100073.19;4433085;32;34289;-76
2022/08/30 01:13:29;;;;;;;8.30;5.72;;;;;;;23.45;69.22;100081.06;4434235;32;34013;-76
2022/08/30 01:15:58;;;;;;;7.22;5.00;;;;;;;23.51;68.72;100074.87;4435620;32;33632;-76
2022/08/30 01:18:27;;;;;;;7.53;4.80;;;;;;;23.52;68.43;100076.62;4432309;32;33529;-76
2022/08/30 01:21:07;;;;;;;7.10;5.25;;;;;;;23.80;67.20;100066.84;4435917;32;33731;-76
2022/08/30 01:23:37;;;;;;;8.00;5.22;;;;;;;23.85;66.61;100070.31;4436054;32;34058;-76
2022/08/30 01:26:05;;;;;;;7.40;5.18;;;;;;;23.90;66.47;100072.97;4434452;32;33939;-76
2022/08/30 01:28:33;;;;;;;8.15;5.12;;;;;;;24.00;66.01;100068.50;4430980;32;33634;-76
2022/08/30 01:31:01;;;;;;;12.63;5.45;;;;;;;23.61;67.45;100073.94;4435746;32;33895;-76
2022/08/30 01:33:29;;;;;;;7.22;5.18;;;;;;;23.57;67.72;100069.56;4433501;32;34720;-76
2022/08/30 01:36:03;;;;;;;8.85;5.40;;;;;;;24.13;65.57;100064.91;4422817;32;33545;-76
2022/08/30 01:38:39;;;;;;;7.95;5.18;;;;;;;23.80;66.54;100065.94;4425959;32;34057;-76
2022/08/30 01:41:09;;;;;;;8.13;5.30;;;;;;;23.49;67.52;100066.06;4420723;32;34030;-76
2022/08/30 01:43:37;;;;;;;8.40;5.50;;;;;;;23.50;67.72;100067.81;4432666;32;33962;-76
2022/08/30 01:46:05;;;;;;;8.18;5.72;;;;;;;23.26;68.82;100064.37;4432861;32;33533;-76
2022/08/30 01:48:33;;;;;;;9.77;5.93;;;;;;;23.14;69.74;100061.75;4431161;32;33239;-76
2022/08/30 01:51:02;;;;;;;8.27;6.05;;;;;;;23.04;69.82;100070.59;4434151;32;32673;-76
2022/08/30 01:53:29;;;;;;;8.55;6.45;;;;;;;22.64;71.84;100062.66;4431042;32;33951;-76
2022/08/30 01:55:57;;;;;;;9.82;6.18;;;;;;;22.48;72.45;100057.37;4430303;32;33701;-76
2022/08/30 01:58:25;;;;;;;10.05;5.57;;;;;;;22.32;73.68;100060.91;4427932;32;32116;-76
2022/08/30 02:00:52;;;;;;;7.72;5.22;;;;;;;22.91;71.16;100059.16;4432280;32;34024;-76
2022/08/30 02:03:20;;;;;;;7.57;5.10;;;;;;;23.09;70.29;100058.25;4436364;32;33921;-76
2022/08/30 02:05:48;;;;;;;11.07;5.32;;;;;;;23.12;69.50;100058.22;4434691;32;34019;-76
2022/08/30 02:08:15;;;;;;;9.02;5.47;;;;;;;23.03;69.45;100061.78;4437791;32;33370;-76
2022/08/30 02:10:43;;;;;;;10.40;5.47;;;;;;;23.19;68.77;100051.19;4437026;32;34681;-76
2022/08/30 02:13:11;;;;;;;9.45;5.90;;;;;;;23.46;67.73;100059.00;4431830;32;33974;-76
2022/08/30 02:15:38;;;;;;;7.80;4.90;;;;;;;23.45;67.32;100059.00;4433094;32;33129;-76
2022/08/30 02:18:09;;;;;;;8.77;5.70;;;;;;;23.28;67.78;100052.03;4431388;32;33576;-76
2022/08/30 02:20:38;;;;;;;8.88;5.37;;;;;;;23.24;67.75;100054.72;4434432;32;33730;-76
2022/08/30 02:23:06;;;;;;;7.55;5.57;;;;;;;22.93;68.95;100045.03;4435227;32;33719;-76
2022/08/30 02:25:33;;;;;;;9.52;5.90;;;;;;;22.93;68.89;100050.31;4429675;32;34478;-76
2022/08/30 02:28:01;;;;;;;9.02;5.70;;;;;;;22.48;71.23;100049.47;4432851;32;33181;-76
2022/08/30 02:30:28;;;;;;;8.27;5.47;;;;;;;22.21;73.01;100057.34;4428514;32;33735;-76
2022/08/30 02:32:56;;;;;;;9.50;5.85;;;;;;;22.14;73.46;100051.19;4436357;32;33722;-76
2022/08/30 02:35:24;;;;;;;10.30;5.75;;;;;;;22.14;73.60;100054.69;4433544;32;33397;-76
2022/08/30 02:37:52;;;;;;;9.15;6.18;;;;;;;22.12;73.95;100059.09;4434097;32;33528;-76
2022/08/30 02:40:21;;;;;;;8.82;6.25;;;;;;;21.88;75.01;100048.47;4434956;32;33330;-76
2022/08/30 02:42:48;;;;;;;11.50;6.82;;;;;;;21.56;76.47;100052.78;4433116;32;32446;-76
2022/08/30 02:45:16;;;;;;;9.40;6.68;;;;;;;21.61;76.13;100058.06;4430322;32;33880;-76
2022/08/30 02:47:45;;;;;;;10.80;6.30;;;;;;;21.23;78.25;100064.00;4430574;32;33223;-76
2022/08/30 02:50:14;;;;;;;11.70;7.30;;;;;;;21.17;78.57;100069.22;4436195;32;33974;-76
2022/08/30 02:52:42;;;;;;;10.90;7.05;;;;;;;20.93;79.77;100065.56;4433000;32;33524;-76
2022/08/30 02:55:15;;;;;;;11.02;7.57;;;;;;;21.05;79.26;100061.25;4435098;32;33910;-76
2022/08/30 02:57:43;;;;;;;12.55;7.53;;;;;;;20.91;80.27;100062.03;4433539;32;33031;-76
2022/08/30 03:00:13;;;;;;;12.37;7.10;;;;;;;20.67;81.47;100062.75;4434392;32;33776;-76
2022/08/30 03:02:41;;;;;;;11.27;7.07;;;;;;;20.79;80.59;100059.34;4434403;32;33983;-76
2022/08/30 03:05:11;;;;;;;12.13;7.90;;;;;;;20.76;80.80;100059.28;4431677;32;34330;-76
2022/08/30 03:07:40;;;;;;;10.88;7.32;;;;;;;21.16;78.48;100051.66;4433754;32;33639;-76
2022/08/30 03:10:08;;;;;;;10.48;7.20;;;;;;;20.61;80.67;100057.44;4433707;32;33979;-76
2022/08/30 03:12:36;;;;;;;10.32;6.70;;;;;;;20.45;82.23;100058.13;4435300;32;33979;-76
2022/08/30 03:15:05;;;;;;;9.20;6.80;;;;;;;20.64;81.14;100052.19;4432949;32;34734;-76
2022/08/30 03:17:33;;;;;;;11.48;7.35;;;;;;;20.81;79.92;100060.22;4434814;32;33527;-76
2022/08/30 03:20:02;;;;;;;10.90;7.10;;;;;;;21.00;78.96;100066.50;4434885;32;33897;-76
2022/08/30 03:22:30;;;;;;;13.10;7.32;;;;;;;21.44;76.72;100065.91;4433564;32;34868;-76
2022/08/30 03:24:58;;;;;;;11.43;6.95;;;;;;;21.24;77.40;100065.75;4436970;32;33803;-76
2022/08/30 03:27:27;;;;;;;11.23;7.50;;;;;;;20.99;78.57;100076.12;4435942;32;33260;-76
2022/08/30 03:29:55;;;;;;;12.55;8.35;;;;;;;20.81;79.57;100073.38;4430531;32;33926;-76
2022/08/30 03:32:23;;;;;;;11.00;7.45;;;;;;;20.72;79.62;100075.94;4435880;32;34745;-76
2022/08/30 03:34:50;;;;;;;11.40;7.45;;;;;;;20.53;80.77;100080.13;4436601;32;33751;-76
2022/08/30 03:37:19;;;;;;;14.90;8.52;;;;;;;20.59;80.37;100075.84;4435612;32;33289;-76
2022/08/30 03:39:54;;;;;;;12.35;7.78;;;;;;;20.36;81.37;100083.50;4432392;32;33955;-76
2022/08/30 03:42:21;;;;;;;12.15;7.85;;;;;;;20.09;82.88;100084.13;4438114;32;34272;-76
2022/08/30 03:44:51;;;;;;;13.95;8.30;;;;;;;20.18;82.78;100086.81;4436123;32;34659;-76
2022/08/30 03:47:19;;;;;;;14.85;8.40;;;;;;;20.21;82.14;100085.97;4432739;32;33187;-76
2022/08/30 03:49:47;;;;;;;12.93;8.20;;;;;;;20.14;82.76;100092.91;4432006;32;33871;-76
2022/08/30 03:52:14;;;;;;;12.93;8.30;;;;;;;19.97;83.34;100094.47;4434664;32;34126;-76
2022/08/30 03:54:42;;;;;;;12.15;8.10;;;;;;;20.23;81.72;100090.38;4435710;32;34898;-76
2022/08/30 03:57:10;;;;;;;13.68;7.35;;;;;;;19.99;82.66;100098.91;4433346;32;33531;-76
2022/08/30 03:59:46;;;;;;;12.63;8.18;;;;;;;20.74;79.11;100100.53;4429812;32;34487;-76
2022/08/30 04:02:14;;;;;;;11.40;7.65;;;;;;;20.26;80.69;100096.53;4435079;32;33650;-76
2022/08/30 04:04:42;;;;;;;13.40;8.35;;;;;;;19.69;83.99;100099.38;4432551;32;33992;-76
2022/08/30 04:07:09;;;;;;;11.48;8.27;;;;;;;20.16;81.51;100099.06;4435479;32;33428;-76
2022/08/30 04:09:37;;;;;;;11.95;7.40;;;;;;;20.22;81.68;100101.78;4431201;32;34498;-76
2022/08/30 04:12:04;;;;;;;11.98;7.82;;;;;;;20.93;77.58;100099.78;4432945;32;33478;-76
2022/08/30 04:14:32;;;;;;;10.80;7.53;;;;;;;21.08;76.76;100103.44;4436072;32;33916;-76
2022/08/30 04:16:59;;;;;;;11.00;7.65;;;;;;;21.40;75.27;100108.88;4433856;32;33725;-76
2022/08/30 04:19:27;;;;;;;10.65;7.20;;;;;;;21.58;74.29;100113.41;4433218;32;32524;-76
2022/08/30 04:21:56;;;;;;;10.98;7.45;;;;;;;21.64;73.85;100113.44;4435106;32;34702;-76
2022/08/30 04:24:24;;;;;;;11.48;7.85;;;;;;;21.92;72.88;100113.53;4435296;32;33936;-76
2022/08/30 04:26:51;;;;;;;11.23;7.85;;;;;;;20.89;77.02;100128.72;4433425;32;33591;-76
2022/08/30 04:29:19;;;;;;;11.82;6.97;;;;;;;21.98;72.18;100127.66;4434004;32;33445;-77
2022/08/30 04:31:46;;;;;;;12.18;7.18;;;;;;;22.50;69.59;100139.22;4434123;32;34795;-76
2022/08/30 04:34:14;;;;;;;12.50;7.53;;;;;;;21.60;72.64;100133.62;4435480;32;34606;-76
2022/08/30 04:36:42;;;;;;;13.65;8.40;;;;;;;20.58;77.53;100147.72;4436458;32;33213;-76
2022/08/30 04:39:16;;;;;;;12.37;7.82;;;;;;;20.65;78.07;100158.34;4434443;32;34011;-76
2022/08/30 04:41:44;;;;;;;12.60;7.97;;;;;;;21.49;74.00;100150.25;4425201;32;34655;-76
2022/08/30 04:44:11;;;;;;;13.38;7.93;;;;;;;22.09;71.47;100158.44;4431605;32;33626;-76
2022/08/30 04:46:46;;;;;;;13.52;8.00;;;;;;;21.29;74.79;100164.16;4429506;32;33910;-76
2022/08/30 04:49:14;;;;;;;12.32;7.82;;;;;;;21.38;74.55;100166.84;4434437;32;34069;-76
2022/08/30 04:51:41;;;;;;;12.88;7.55;;;;;;;21.82;72.58;100165.38;4425269;32;33691;-76
2022/08/30 04:54:09;;;;;;;12.63;8.02;;;;;;;21.93;71.87;100157.50;4430917;32;33929;-76
2022/08/30 04:56:36;;;;;;;13.25;7.68;;;;;;;21.96;72.49;100168.06;4428007;32;33494;-76
2022/08/30 04:59:04;;;;;;;16.08;8.65;;;;;;;22.58;69.61;100170.06;4435662;32;33671;-76
2022/08/30 05:01:32;;;;;;;14.20;8.07;;;;;;;21.57;74.04;100169.63;4411814;32;33982;-76
2022/08/30 05:04:13;;;;;;;10.38;7.40;;;;;;;22.49;70.66;100164.75;4433589;32;34009;-76
2022/08/30 05:06:42;;;;;;;13.77;7.80;;;;;;;23.00;68.21;100161.28;4435440;32;32998;-76
2022/08/30 05:09:10;;;;;;;12.65;7.50;;;;;;;22.94;68.50;100173.59;4434961;32;34468;-77
2022/08/30 05:11:37;;;;;;;14.85;8.30;;;;;;;23.20;67.65;100175.41;4436314;32;32334;-77
2022/08/30 05:14:05;;;;;;;12.40;7.80;;;;;;;23.25;67.34;100173.59;4433167;32;33624;-76
2022/08/30 05:16:33;;;;;;;11.40;7.78;;;;;;;23.12;67.66;100174.50;4433005;32;33260;-77
2022/08/30 05:19:00;;;;;;;13.82;8.23;;;;;;;22.75;69.44;100177.09;4448221;32;32411;-76
2022/08/30 05:21:28;;;;;;;15.27;8.35;;;;;;;23.12;67.92;100182.41;4438892;32;34294;-77
2022/08/30 05:23:58;;;;;;;12.45;8.13;;;;;;;22.70;69.47;100178.88;4432190;32;33908;-76
2022/08/30 05:26:29;;;;;;;14.55;7.70;;;;;;;23.15;67.92;100172.72;4436232;32;32737;-77
2022/08/30 05:28:57;;;;;;;14.10;7.72;;;;;;;23.15;67.87;100174.50;4433961;32;33812;-77
2022/08/30 05:31:33;;;;;;;16.85;7.72;;;;;;;22.34;71.53;100176.13;4429424;32;34545;-76
2022/08/30 05:34:01;;;;;;;12.23;8.45;;;;;;;22.48;70.89;100172.66;4429609;32;34061;-77
2022/08/30 05:36:31;;;;;;;14.13;8.38;;;;;;;22.36;71.55;100176.16;4433062;32;33361;-76
2022/08/30 05:38:59;;;;;;;12.73;8.32;;;;;;;22.56;71.04;100177.09;4428960;32;33660;-77
2022/08/30 05:41:28;;;;;;;12.37;8.20;;;;;;;22.50;71.40;100176.19;4431439;32;34730;-77
2022/08/30 05:43:58;;;;;;;16.27;8.57;;;;;;;22.51;71.59;100168.28;4430243;32;34174;-76
2022/08/30 05:46:31;;;;;;;13.45;8.40;;;;;;;22.46;72.60;100177.06;4432602;32;34003;-76
2022/08/30 05:49:06;;;;;;;16.45;8.52;;;;;;;22.63;71.72;100177.09;4433579;32;33042;-76
2022/08/30 05:51:34;;;;;;;15.30;8.43;;;;;;;23.03;69.89;100178.03;4430115;32;33371;-76
2022/08/30 05:54:07;;;;;;;12.77;8.40;;;;;;;22.67;70.16;100178.84;4429939;32;33721;-77
2022/08/30 05:56:37;;;;;;;11.73;8.43;;;;;;;23.12;68.47;100182.41;4438342;32;33014;-76
2022/08/30 05:59:06;;;;;;;12.63;8.85;;;;;;;22.78;69.14;100182.41;4432570;32;33831;-75
2022/08/30 06:01:43;;;;;;;17.00;8.70;;;;;;;23.02;68.01;100185.91;4433607;32;34196;-76
2022/08/30 06:04:12;;;;;;;12.37;8.88;;;;;;;22.89;68.17;100180.66;4432087;32;33507;-76
2022/08/30 06:06:41;;;;;;;14.02;9.50;;;;;;;22.75;69.10;100182.38;4429446;32;33255;-76
2022/08/30 06:09:11;;;;;;;14.82;8.85;;;;;;;22.92;68.76;100185.91;4434942;32;34106;-76
2022/08/30 06:11:39;;;;;;;12.37;7.05;;;;;;;22.82;68.47;100188.56;4426531;32;34001;-77
2022/08/30 06:14:07;;;;;;;14.50;8.68;;;;;;;23.30;67.63;100193.00;4432524;32;33938;-76
2022/08/30 06:16:37;;;;;;;11.15;7.57;;;;;;;23.81;65.37;100192.03;4433868;32;34082;-77
2022/08/30 06:19:07;;;;;;;13.48;7.28;;;;;;;24.40;62.78;100184.75;4433039;32;34485;-76
2022/08/30 06:21:36;;;;;;;12.00;7.65;;;;;;;24.12;62.37;100196.31;4422548;32;33967;-76
2022/08/30 06:24:05;;;;;;;10.90;6.72;;;;;;;24.19;62.15;100193.69;4427399;32;34674;-75
2022/08/30 06:26:37;;;;;;;10.40;7.05;;;;;;;24.09;63.36;100185.78;4431977;32;33505;-76
2022/08/30 06:29:05;;;;;;;8.70;6.20;;;;;;;24.04;62.29;100192.84;4436969;32;33750;-76
2022/08/30 06:31:33;;;;;;;9.60;5.80;;;;;;;24.24;59.94;100194.50;4432827;32;33678;-76
2022/08/30 06:34:01;;;;;;;9.52;5.65;;;;;;;24.35;56.92;100192.69;4436270;32;34408;-76
2022/08/30 06:36:28;;;;;;;10.73;6.40;;;;;;;24.62;55.96;100190.81;4436817;32;33123;-77
2022/08/30 06:38:57;;;;;;;8.73;5.60;;;;;;;24.85;54.88;100193.31;4436145;32;34201;-77
2022/08/30 06:41:27;;;;;;;9.88;5.95;;;;;;;25.25;53.52;100193.88;4432617;32;34740;-76
2022/08/30 06:43:57;;;;;;;9.27;5.47;;;;;;;25.16;54.13;100193.94;4436315;32;33756;-77
2022/08/30 06:46:31;;;;;;;11.82;6.20;;;;;;;24.93;54.90;100187.03;4435534;32;32282;-76
2022/08/30 06:48:59;;;;;;;9.10;5.62;;;;;;;25.10;52.80;100194.84;4436167;32;34687;-77
2022/08/30 06:51:30;;;;;;;10.13;5.55;;;;;;;24.76;54.14;100186.28;4439432;32;34709;-77
2022/08/30 06:53:58;;;;;;;8.45;5.12;;;;;;;24.53;54.59;100184.69;4436297;32;35241;-77
2022/08/30 06:56:26;;;;;;;10.50;5.47;;;;;;;24.69;52.84;100190.75;4433320;32;33569;-76
2022/08/30 06:58:54;;;;;;;7.53;5.10;;;;;;;25.22;52.60;100199.19;4435288;32;33838;-77
2022/08/30 07:01:26;;;;;;;8.55;5.12;;;;;;;25.46;51.94;100202.53;4433972;32;33502;-76
2022/08/30 07:03:54;;;;;;;8.93;5.70;;;;;;;25.68;51.03;100200.53;4432784;32;32183;-74
2022/08/30 07:06:24;;;;;;;8.48;5.30;;;;;;;25.64;51.23;100207.63;4429212;32;33445;-77
2022/08/30 07:08:51;;;;;;;8.65;5.43;;;;;;;25.46;51.43;100203.41;4431001;32;33752;-75
2022/08/30 07:11:34;;;;;;;8.80;5.28;;;;;;;25.82;50.53;100208.34;4438121;32;34718;-75
2022/08/30 07:14:02;;;;;;;9.38;4.93;;;;;;;26.18;48.66;100199.09;4435446;32;34045;-75
2022/08/30 07:16:30;;;;;;;9.45;4.82;;;;;;;26.34;47.68;100205.06;4436331;32;34359;-77
2022/08/30 07:18:59;;;;;;;8.93;5.40;;;;;;;27.17;46.94;100206.50;4432863;32;34246;-77
2022/08/30 07:21:30;;;;;;;13.50;5.65;;;;;;;26.82;47.91;100202.63;4433686;32;33545;-77
2022/08/30 07:23:59;;;;;;;8.05;5.20;;;;;;;27.12;47.04;100205.72;4434037;32;33900;-77
2022/08/30 07:26:31;;;;;;;7.75;4.75;;;;;;;27.04;46.41;100202.28;4435031;32;33939;-77
2022/08/30 07:28:59;;;;;;;8.07;4.75;;;;;;;27.44;45.79;100212.28;4430968;32;33754;-77
2022/08/30 07:31:27;;;;;;;6.97;4.43;;;;;;;27.79;44.42;100208.94;4431398;32;33459;-77
2022/08/30 07:33:55;;;;;;;8.65;4.60;;;;;;;27.03;44.07;100208.53;4437723;32;33990;-77
2022/08/30 07:36:23;;;;;;;8.38;4.43;;;;;;;26.81;44.13;100211.53;4437349;32;33571;-77
2022/08/30 07:38:51;;;;;;;8.48;4.40;;;;;;;27.67;42.82;100213.66;4435233;32;34535;-77
2022/08/30 07:41:22;;;;;;;6.07;4.18;;;;;;;27.71;42.83;100218.00;4432740;32;35222;-76
2022/08/30 07:43:50;;;;;;;8.38;4.90;;;;;;;27.10;43.62;100211.94;4430166;32;34507;-76
2022/08/30 07:46:18;;;;;;;7.68;4.50;;;;;;;27.81;43.33;100216.91;4433616;32;33518;-77
2022/08/30 07:48:46;;;;;;;7.30;4.47;;;;;;;27.69;43.84;100214.50;4435710;32;34028;-77
2022/08/30 07:51:18;;;;;;;7.55;4.20;;;;;;;27.73;43.40;100208.19;4436998;32;34828;-77
2022/08/30 07:53:46;;;;;;;8.45;4.35;;;;;;;27.84;41.87;100220.37;4436564;32;34529;-77
2022/08/30 07:56:16;;;;;;;8.13;4.35;;;;;;;28.35;41.76;100214.03;4436685;32;34055;-77
2022/08/30 07:58:44;;;;;;;6.75;4.62;;;;;;;27.87;41.74;100215.91;4434075;32;34645;-76
2022/08/30 08:01:12;;;;;;;7.28;4.32;;;;;;;27.96;43.12;100213.97;4435263;32;33927;-77
2022/08/30 08:03:41;;;;;;;5.62;4.05;;;;;;;28.57;41.43;100213.63;4430359;32;33877;-77
2022/08/30 08:06:11;;;;;;;8.00;4.35;;;;;;;28.81;41.06;100207.69;4437691;32;32477;-78
2022/08/30 08:08:39;;;;;;;6.43;4.18;;;;;;;28.84;40.64;100209.44;4437462;32;33762;-77
2022/08/30 08:11:14;;;;;;;8.30;4.50;;;;;;;29.01;40.50;100217.00;4432764;32;33573;-77
2022/08/30 08:13:44;;;;;;;6.65;4.45;;;;;;;28.98;40.21;100209.09;4433085;32;33882;-76
2022/08/30 08:16:24;;;;;;;8.50;4.20;;;;;;;29.04;39.88;100219.59;4428026;32;33347;-76
2022/08/30 08:18:53;;;;;;;7.00;4.40;;;;;;;28.95;40.45;100211.81;4433238;32;34124;-76
2022/08/30 08:21:23;;;;;;;6.30;4.05;;;;;;;29.78;37.72;100213.25;4434504;32;33585;-76
2022/08/30 08:23:51;;;;;;;8.50;4.03;;;;;;;29.88;37.39;100213.91;4439513;32;34426;-76
2022/08/30 08:26:19;;;;;;;8.57;3.80;;;;;;;29.08;38.83;100210.59;4433676;32;34019;-77
2022/08/30 08:28:47;;;;;;;6.70;3.90;;;;;;;29.29;39.09;100219.03;4432409;32;34269;-77
2022/08/30 08:31:23;;;;;;;6.40;3.95;;;;;;;29.63;38.17;100212.78;4433321;32;34738;-76
2022/08/30 08:34:03;;;;;;;8.48;4.10;;;;;;;30.26;36.78;100209.22;4435782;32;33574;-76
2022/08/30 08:36:31;;;;;;;6.15;4.35;;;;;;;30.64;36.08;100215.22;4435983;32;32423;-76
2022/08/30 08:39:00;;;;;;;7.85;4.07;;;;;;;30.54;36.73;100209.28;4437105;32;32177;-76
2022/08/30 08:41:50;;;;;;;6.68;4.00;;;;;;;30.85;35.24;100212.78;4435738;32;34534;-78
2022/08/30 08:44:30;;;;;;;6.65;4.22;;;;;;;30.82;35.27;100207.53;4435455;32;32719;-76
2022/08/30 08:47:29;;;;;;;6.82;3.85;;;;;;;30.89;36.34;100203.75;4436841;32;34019;-77
2022/08/30 08:50:01;;;;;;;7.70;3.97;;;;;;;29.43;37.77;100206.19;4433829;32;33729;-77
2022/08/30 08:55:52;;;;;;;5.95;3.87;;;;;;;29.94;36.71;100213.72;4431583;32;34521;-79
2022/08/30 08:58:28;;;;;;;7.72;4.55;;;;;;;28.75;37.92;100210.50;4431377;32;33758;-77
2022/08/30 09:00:57;;;;;;;14.70;4.45;;;;;;;29.50;37.67;100207.78;4437101;32;33953;-76
2022/08/30 09:03:27;;;;;;;7.80;3.97;;;;;;;29.93;37.37;100203.94;4437390;32;33752;-74
2022/08/30 09:05:57;;;;;;;7.30;4.05;;;;;;;30.01;37.43;100202.84;4435807;32;33490;-77
2022/08/30 09:08:24;;;;;;;7.10;3.70;;;;;;;30.13;37.30;100202.50;4436588;32;31642;-78
2022/08/30 09:10:59;;;;;;;6.72;4.22;;;;;;;30.31;36.89;100201.97;4434299;32;34041;-76
2022/08/30 09:13:27;;;;;;;9.85;4.20;;;;;;;31.02;34.37;100199.75;4426508;32;33617;-78
2022/08/30 09:15:56;;;;;;;8.23;3.45;;;;;;;30.98;34.61;100198.09;4434508;32;33961;-77
2022/08/30 09:18:52;;;;;;;7.87;4.18;;;;;;;31.54;34.61;100198.00;4429003;32;33083;-77
2022/08/30 09:21:23;;;;;;;7.82;4.00;;;;;;;31.81;34.15;100189.87;4431276;32;33687;-78
2022/08/30 09:24:00;;;;;;;8.98;3.97;;;;;;;32.16;33.02;100185.03;4431110;32;33153;-77
2022/08/30 09:26:35;;;;;;;7.57;4.20;;;;;;;30.63;35.56;100185.87;4429827;32;33532;-76
2022/08/30 09:29:04;;;;;;;10.15;4.47;;;;;;;29.37;37.60;100190.34;4427154;32;34134;-76
2022/08/30 09:31:53;;;;;;;7.05;4.50;;;;;;;29.14;38.26;100186.47;4434473;32;35647;-79
2022/08/30 09:34:42;;;;;;;9.70;4.53;;;;;;;29.28;37.91;100179.91;4426724;32;35185;-77
2022/08/30 09:37:30;;;;;;;6.68;4.18;;;;;;;30.52;36.57;100172.81;4430289;32;33050;-80
2022/08/30 09:39:59;;;;;;;8.35;4.40;;;;;;;31.05;34.91;100172.91;4430656;32;33088;-79
2022/08/30 09:42:28;;;;;;;7.12;3.92;;;;;;;30.93;36.46;100176.00;4429943;32;33668;-79
2022/08/30 09:45:09;;;;;;;6.93;4.60;;;;;;;30.36;36.31;100170.62;4415874;32;34617;-76
2022/08/30 09:47:40;;;;;;;7.47;4.20;;;;;;;30.11;36.60;100172.28;4429932;32;34250;-76
2022/08/30 09:50:18;;;;;;;9.95;4.85;;;;;;;30.32;36.69;100163.63;4426646;32;32724;-77
2022/08/30 09:52:59;;;;;;;6.18;3.95;;;;;;;29.18;38.26;100169.47;4433691;32;33495;-77
2022/08/30 09:55:40;;;;;;;9.13;4.15;;;;;;;30.73;35.20;100166.81;4429166;32;33552;-76
2022/08/30 09:58:24;;;;;;;5.82;4.20;;;;;;;30.51;36.26;100158.59;4428671;32;34315;-76
2022/08/30 10:01:15;;;;;;;5.80;4.20;;;;;;;30.12;37.27;100163.34;4426409;32;34022;-76
2022/08/30 10:04:01;;;;;;;7.57;4.25;;;;;;;28.99;38.17;100162.81;4429521;32;33332;-76
2022/08/30 10:06:56;;;;;;;6.90;4.40;;;;;;;28.22;41.03;100154.84;4446887;32;34131;-75
2022/08/30 10:09:35;;;;;;;9.50;4.37;;;;;;;29.25;38.24;100148.00;4427249;32;33679;-76
2022/08/30 10:12:41;;;;;;;8.07;4.65;;;;;;;29.50;39.36;100159.75;4430965;32;33174;-75
2022/08/30 10:15:32;;;;;;;6.68;4.57;;;;;;;30.14;37.58;100149.03;4431027;32;32284;-75
2022/08/30 10:18:16;;;;;;;7.22;4.00;;;;;;;29.85;38.69;100144.53;4426602;32;34771;-76
2022/08/30 10:21:25;;;;;;;9.30;4.50;;;;;;;30.38;38.33;100144.75;4430321;32;33643;-77
2022/08/30 10:24:11;;;;;;;8.20;4.55;;;;;;;31.24;36.05;100142.84;4404748;32;33157;-76
2022/08/30 10:26:49;;;;;;;;;;;;;;;31.49;34.67;100138.41;4405448;32;33764;-76
2022/08/30 10:29:29;;;;;;;6.80;4.60;;;;;;;32.02;35.11;100129.28;4422031;32;33841;-77
2022/08/30 10:32:10;;;;;;;6.35;4.12;;;;;;;31.12;35.71;100134.31;4429058;32;33414;-76
2022/08/30 10:34:40;;;;;;;8.15;5.00;;;;;;;31.14;35.88;100132.47;4431314;32;33337;-77
2022/08/30 10:37:26;;;;;;;9.00;4.78;;;;;;;30.85;35.80;100135.22;4429182;32;33865;-80
2022/08/30 10:39:59;;;;;;;10.32;5.07;;;;;;;32.24;33.40;100123.09;4446369;32;33685;-78
2022/08/30 10:42:30;;;;;;;;;;;;;;;31.33;36.15;100119.31;4435000;32;34134;-75
2022/08/30 10:45:04;;;;;;;7.10;4.25;;;;;;;30.95;35.93;100117.97;4430182;32;33251;-77
2022/08/30 10:47:54;;;;;;;9.63;4.53;;;;;;;30.78;36.84;100119.38;4432821;32;33294;-74
2022/08/30 10:50:30;;;;;;;6.68;4.50;;;;;;;31.10;36.90;100113.88;4431037;32;33583;-76
2022/08/30 10:53:08;;;;;;;7.95;4.50;;;;;;;30.90;37.05;100117.25;4442354;32;33820;-77
2022/08/30 10:55:44;;;;;;;6.18;4.85;;;;;;;30.76;37.04;100112.34;4434975;32;33529;-77
2022/08/30 10:58:18;;;;;;;8.32;4.90;;;;;;;30.99;37.06;100108.91;4429050;32;33472;-76
2022/08/30 11:01:10;;;;;;;7.18;4.60;;;;;;;31.01;36.41;100103.53;4429733;32;32679;-78
2022/08/30 11:03:51;;;;;;;7.00;4.20;;;;;;;31.08;36.42;100105.03;4426229;32;34685;-76
2022/08/30 11:06:38;;;;;;;6.78;4.68;;;;;;;31.04;35.64;100101.63;4433777;32;33185;-77
2022/08/30 11:09:15;;;;;;;7.93;4.30;;;;;;;31.45;35.84;100101.94;4422283;32;33425;-78
2022/08/30 11:12:04;;;;;;;7.30;4.25;;;;;;;32.25;33.98;100101.59;4428942;32;34317;-76
2022/08/30 11:14:32;;;;;;;7.10;4.30;;;;;;;31.10;35.78;100104.06;4438064;32;34425;-76
2022/08/30 11:17:00;;;;;;;7.10;4.50;;;;;;;32.48;34.10;100099.78;4435641;32;33499;-78
2022/08/30 11:19:36;;;;;;;7.62;4.57;;;;;;;33.09;32.50;100099.03;4423713;32;34004;-78
2022/08/30 11:22:17;;;;;;;6.60;4.45;;;;;;;33.25;31.94;100099.25;4431650;32;34220;-76
2022/08/30 11:25:08;;;;;;;7.80;4.78;;;;;;;33.32;32.32;100086.44;4430998;32;34670;-76
2022/08/30 11:27:49;;;;;;;7.47;3.83;;;;;;;32.20;33.55;100083.94;4446337;32;33983;-76
2022/08/30 11:30:24;;;;;;;7.55;4.37;;;;;;;33.39;31.82;100077.16;4434469;32;34547;-77
2022/08/30 11:33:11;;;;;;;6.18;4.10;;;;;;;32.96;33.24;100079.91;4434237;32;33799;-76
2022/08/30 11:35:48;;;;;;;5.47;4.12;;;;;;;33.09;32.62;100070.38;4428905;32;33897;-76
2022/08/30 11:38:38;;;;;;;7.55;4.65;;;;;;;31.68;34.17;100070.75;4435211;32;33292;-74
2022/08/30 11:41:10;;;;;;;7.22;4.28;;;;;;;32.49;32.38;100072.03;4428526;32;33733;-77
2022/08/30 11:43:41;;;;;;;6.35;4.03;;;;;;;32.29;32.81;100079.09;4435775;32;34775;-77
2022/08/30 11:46:35;;;;;;;6.18;4.43;;;;;;;32.09;33.59;100071.00;4434696;32;33375;-76